createdAt,value
2022-10-23T00:01:19.468Z,59171.91
2022-10-23T00:03:46.519Z,59126.38
2022-10-23T00:06:13.841Z,59078.75
2022-10-23T00:08:40.593Z,59060.13
2022-10-23T00:11:11.751Z,59097.38
2022-10-23T00:13:38.673Z,58993.88
2022-10-23T00:16:05.877Z,59136.72
2022-10-23T00:18:32.678Z,59111.88
2022-10-23T00:20:59.154Z,59122.22
2022-10-23T00:23:25.585Z,59101.53
2022-10-23T00:25:52.147Z,59130.50
2022-10-23T00:28:18.642Z,59082.88
2022-10-23T00:30:45.046Z,59101.53
2022-10-23T00:33:11.483Z,59008.34
2022-10-23T00:35:41.841Z,59084.97
2022-10-23T00:38:09.042Z,59078.75
2022-10-23T00:40:37.065Z,59047.69
2022-10-23T00:43:03.884Z,59269.22
2022-10-23T00:45:33.976Z,59095.31
2022-10-23T00:48:01.766Z,59047.69
2022-10-23T00:50:30.377Z,59068.41
2022-10-23T00:52:59.817Z,59076.69
2022-10-23T00:55:27.194Z,59304.41
2022-10-23T00:57:53.906Z,58993.88
2022-10-23T01:00:31.872Z,59018.72
2022-10-23T01:02:58.442Z,58958.66
2022-10-23T01:05:31.872Z,58993.88
2022-10-23T01:08:27.506Z,59004.22
2022-10-23T01:11:16.256Z,59031.13
2022-10-23T01:16:45.759Z,59167.78
2022-10-23T01:19:26.031Z,58991.78
2022-10-23T01:21:55.938Z,58942.09
2022-10-23T01:24:40.847Z,58960.75
2022-10-23T01:27:24.621Z,58983.50
2022-10-23T01:30:02.061Z,58977.31
2022-10-23T01:32:52.658Z,58993.88
2022-10-23T01:35:25.347Z,59010.44
2022-10-23T01:37:56.427Z,59004.22
2022-10-23T01:40:28.771Z,59018.72
2022-10-23T01:42:58.304Z,59372.75
2022-10-23T01:45:39.137Z,59089.09
2022-10-23T01:48:07.363Z,59097.38
2022-10-23T01:50:34.736Z,58995.94
2022-10-23T01:53:01.181Z,59045.63
2022-10-23T01:55:27.645Z,59002.16
2022-10-23T01:57:54.707Z,59053.91
2022-10-23T02:00:21.905Z,59157.41
2022-10-23T02:02:49.600Z,59169.84
2022-10-23T02:05:19.005Z,59084.97
2022-10-23T02:07:45.708Z,59116.00
2022-10-23T02:10:12.910Z,59213.31
2022-10-23T02:12:54.564Z,59180.19
2022-10-23T02:15:34.907Z,59215.41
2022-10-23T02:18:25.166Z,59256.81
2022-10-23T02:20:57.929Z,59461.78
2022-10-23T02:23:48.255Z,59432.78
2022-10-23T02:26:25.345Z,59250.59
2022-10-23T02:31:29.930Z,59211.25
2022-10-23T02:33:56.352Z,59167.78
2022-10-23T02:36:22.886Z,59265.09
2022-10-23T02:38:49.330Z,59314.78
2022-10-23T02:41:38.735Z,59240.25
2022-10-23T02:44:37.841Z,59252.66
2022-10-23T02:47:10.642Z,59173.97
2022-10-23T02:49:51.967Z,59188.47
2022-10-23T02:52:23.592Z,59111.88
2022-10-23T02:55:03.963Z,59132.56
2022-10-23T02:57:42.340Z,59120.16
2022-10-23T03:00:21.262Z,59134.66
2022-10-23T03:03:10.728Z,59093.25
2022-10-23T03:05:39.539Z,59064.25
2022-10-23T03:08:09.376Z,59053.91
2022-10-23T03:10:35.829Z,59008.34
2022-10-23T03:13:02.272Z,59105.66
2022-10-23T03:15:28.696Z,59105.66
2022-10-23T03:17:55.350Z,59097.38
2022-10-23T03:20:21.807Z,59035.28
2022-10-23T03:22:48.200Z,58969.03
2022-10-23T03:25:14.915Z,59076.69
2022-10-23T03:27:41.366Z,58995.94
2022-10-23T03:30:08.733Z,59041.47
2022-10-23T03:35:15.529Z,59304.41
2022-10-23T03:37:42.134Z,59037.34
2022-10-23T03:40:09.214Z,59029.06
2022-10-23T03:42:35.633Z,58948.31
2022-10-23T03:45:02.111Z,59020.78
2022-10-23T03:47:30.290Z,58983.50
2022-10-23T03:49:56.722Z,58956.59
2022-10-23T03:54:49.576Z,58987.66
2022-10-23T03:57:15.954Z,59298.22
2022-10-23T03:59:42.393Z,59062.19
2022-10-23T04:02:08.922Z,59190.53
2022-10-23T04:04:35.410Z,59004.22
2022-10-23T04:07:01.815Z,59012.50
2022-10-23T04:09:28.269Z,59033.19
2022-10-23T04:11:56.177Z,59024.91
2022-10-23T04:14:22.574Z,59008.34
2022-10-23T04:16:48.951Z,58983.50
2022-10-23T04:19:17.082Z,59031.13
2022-10-23T04:21:44.018Z,59014.56
2022-10-23T04:24:10.432Z,59347.91
2022-10-23T04:26:36.812Z,59045.63
2022-10-23T04:29:03.451Z,59080.81
2022-10-23T04:31:29.870Z,59066.31
2022-10-23T04:33:56.297Z,59037.34
2022-10-23T04:36:22.748Z,58964.88
2022-10-23T04:38:49.254Z,59087.03
2022-10-23T04:41:15.634Z,59080.81
2022-10-23T04:43:42.169Z,59058.03
2022-10-23T04:46:08.563Z,59055.97
2022-10-23T04:48:35.009Z,59202.97
2022-10-23T04:51:04.333Z,59074.59
2022-10-23T04:53:31.347Z,59076.69
2022-10-23T04:55:58.829Z,59051.84
2022-10-23T04:58:27.553Z,59037.34
2022-10-23T05:00:54.648Z,59020.78
2022-10-23T05:03:22.273Z,59053.91
2022-10-23T05:05:48.701Z,59058.03
2022-10-23T05:08:17.912Z,59298.22
2022-10-23T05:10:44.919Z,59041.47
2022-10-23T05:13:11.504Z,59016.63
2022-10-23T05:15:37.941Z,59058.03
2022-10-23T05:18:12.620Z,59136.72
2022-10-23T05:20:39.814Z,59041.47
2022-10-23T05:23:09.914Z,59072.53
2022-10-23T05:25:37.058Z,59072.53
2022-10-23T05:28:04.123Z,59039.41
2022-10-23T05:30:32.947Z,59016.63
2022-10-23T05:33:01.428Z,59111.88
2022-10-23T05:35:29.560Z,59055.97
2022-10-23T05:37:57.646Z,59035.28
2022-10-23T05:40:24.286Z,59093.25
2022-10-23T05:42:50.749Z,59004.22
2022-10-23T05:45:17.220Z,59078.75
2022-10-23T05:47:47.575Z,59120.16
2022-10-23T05:50:14.024Z,59080.81
2022-10-23T05:52:40.597Z,59058.03
2022-10-23T05:55:07.396Z,59089.09
2022-10-23T05:57:34.010Z,59099.44
2022-10-23T06:00:00.467Z,59074.59
2022-10-23T06:02:26.894Z,59089.09
2022-10-23T06:04:53.392Z,59087.03
2022-10-23T06:07:24.417Z,59122.22
2022-10-23T06:09:50.767Z,59091.16
2022-10-23T06:12:17.160Z,59070.47
2022-10-23T06:14:43.541Z,59089.09
2022-10-23T06:17:09.918Z,59136.72
2022-10-23T06:19:36.423Z,59153.28
2022-10-23T06:22:04.583Z,59331.34
2022-10-23T06:24:31.105Z,59134.66
2022-10-23T06:26:57.517Z,59465.91
2022-10-23T06:29:23.903Z,59337.53
2022-10-23T06:31:50.416Z,59033.19
2022-10-23T06:34:16.834Z,59080.81
2022-10-23T06:36:43.647Z,59111.88
2022-10-23T06:39:10.419Z,59120.16
2022-10-23T06:41:38.376Z,59122.22
2022-10-23T06:44:04.838Z,59124.28
2022-10-23T06:46:33.142Z,59142.94
2022-10-23T06:48:59.536Z,59198.81
2022-10-23T06:51:29.523Z,59184.34
2022-10-23T06:53:56.527Z,59165.69
2022-10-23T06:56:25.154Z,59217.47
2022-10-23T06:58:51.782Z,59217.47
2022-10-23T07:01:18.475Z,59118.09
2022-10-23T07:03:45.149Z,59300.28
2022-10-23T07:06:11.866Z,59215.41
2022-10-23T07:08:38.807Z,59488.69
2022-10-23T07:11:09.203Z,59225.75
2022-10-23T07:13:36.272Z,59294.06
2022-10-23T07:16:14.158Z,59343.75
2022-10-23T07:18:40.658Z,59335.47
2022-10-23T07:21:07.215Z,59347.91
2022-10-23T07:23:33.724Z,59196.75
2022-10-23T07:26:11.808Z,59374.81
2022-10-23T07:28:38.775Z,59383.09
2022-10-23T07:31:05.264Z,59356.19
2022-10-23T07:33:31.667Z,59378.97
2022-10-23T07:35:58.160Z,59468.00
2022-10-23T07:38:24.596Z,59559.09
2022-10-23T07:40:51.263Z,59476.28
2022-10-23T07:43:18.606Z,59542.53
2022-10-23T07:45:48.199Z,59563.25
2022-10-23T07:48:14.637Z,59652.28
2022-10-23T07:50:41.081Z,59615.00
2022-10-23T07:53:08.807Z,60163.75
2022-10-23T07:55:35.221Z,59778.59
2022-10-23T07:58:01.610Z,59730.97
2022-10-23T08:00:28.239Z,59807.56
2022-10-23T08:02:54.686Z,59776.50
2022-10-23T08:05:21.202Z,59906.97
2022-10-23T08:07:47.668Z,59940.09
2022-10-23T08:10:14.075Z,60010.50
2022-10-23T08:12:40.662Z,60016.72
2022-10-23T08:15:07.664Z,60043.66
2022-10-23T08:17:34.065Z,60080.91
2022-10-23T08:20:00.482Z,60006.38
2022-10-23T08:22:26.876Z,60221.75
2022-10-23T08:24:53.303Z,60238.31
2022-10-23T08:27:19.745Z,60689.81
2022-10-23T08:29:46.206Z,60153.41
2022-10-23T08:32:12.662Z,60296.31
2022-10-23T08:34:39.783Z,60747.81
2022-10-23T08:37:06.838Z,60530.31
2022-10-23T08:39:33.279Z,61066.78
2022-10-23T08:41:59.761Z,60418.50
2022-10-23T08:44:51.572Z,60671.16
2022-10-23T08:47:24.218Z,60737.44
2022-10-23T08:50:00.658Z,60809.94
2022-10-23T08:52:47.899Z,60805.78
2022-10-23T08:55:29.726Z,60745.72
2022-10-23T08:58:23.989Z,60789.22
2022-10-23T09:00:51.673Z,60809.94
2022-10-23T09:03:18.536Z,60766.44
2022-10-23T09:06:00.829Z,60787.16
2022-10-23T09:08:45.700Z,60722.94
2022-10-23T09:11:21.089Z,60809.94
2022-10-23T09:13:55.030Z,60878.28
2022-10-23T09:16:30.345Z,60903.16
2022-10-23T09:18:57.327Z,61207.63
2022-10-23T09:21:28.129Z,60990.13
2022-10-23T09:23:54.972Z,60934.22
2022-10-23T09:26:21.716Z,61083.34
2022-10-23T09:28:49.553Z,60988.06
2022-10-23T09:31:16.713Z,60973.56
2022-10-23T09:34:01.237Z,61046.06
2022-10-23T09:36:29.336Z,61172.41
2022-10-23T09:38:58.855Z,61164.13
2022-10-23T09:41:30.177Z,61224.22
2022-10-23T09:44:17.528Z,61294.63
2022-10-23T09:46:45.798Z,61317.44
2022-10-23T09:49:23.204Z,61280.13
2022-10-23T09:52:05.103Z,61704.81
2022-10-23T09:54:44.767Z,61611.59
2022-10-23T09:57:14.242Z,61775.25
2022-10-23T09:59:41.737Z,61829.13
2022-10-23T10:02:27.250Z,61783.53
2022-10-23T10:04:53.780Z,61789.75
2022-10-23T10:07:21.181Z,61783.53
2022-10-23T10:09:47.887Z,61760.75
2022-10-23T10:12:17.283Z,61737.97
2022-10-23T10:14:58.953Z,61754.53
2022-10-23T10:17:29.486Z,61694.47
2022-10-23T10:20:24.833Z,61667.53
2022-10-23T10:23:33.686Z,61690.31
2022-10-23T10:26:44.960Z,61661.31
2022-10-23T10:29:38.509Z,61711.03
2022-10-23T10:32:24.746Z,61769.03
2022-10-23T10:35:16.021Z,61750.41
2022-10-23T10:38:18.807Z,61783.53
2022-10-23T10:41:00.536Z,61744.19
2022-10-23T10:43:51.454Z,61725.53
2022-10-23T10:46:38.477Z,61812.53
2022-10-23T10:49:20.092Z,62079.81
2022-10-23T10:51:48.139Z,61878.84
2022-10-23T10:54:25.576Z,61970.00
2022-10-23T10:56:52.004Z,61907.84
2022-10-23T10:59:30.499Z,61853.97
2022-10-23T11:02:00.701Z,61903.72
2022-10-23T11:04:51.954Z,61994.88
2022-10-23T11:07:25.009Z,61883.00
2022-10-23T11:09:51.867Z,61999.00
2022-10-23T11:12:20.792Z,61955.50
2022-10-23T11:14:47.444Z,61965.88
2022-10-23T11:17:24.255Z,61887.13
2022-10-23T11:20:00.846Z,62059.09
2022-10-23T11:22:47.807Z,62144.03
2022-10-23T11:25:32.386Z,62316.03
2022-10-23T11:28:23.573Z,62191.69
2022-10-23T11:31:12.237Z,62173.06
2022-10-23T11:33:53.896Z,62220.72
2022-10-23T11:36:39.240Z,62237.28
2022-10-23T11:39:19.642Z,62295.31
2022-10-23T11:41:52.334Z,62309.81
2022-10-23T11:44:26.537Z,62388.53
2022-10-23T11:47:01.450Z,62405.13
2022-10-23T11:49:27.861Z,62342.97
2022-10-23T11:52:05.385Z,62384.41
2022-10-23T11:54:32.182Z,62342.97
2022-10-23T11:57:10.355Z,62394.75
2022-10-23T11:59:49.261Z,62429.97
2022-10-23T12:02:31.792Z,62604.03
2022-10-23T12:05:05.791Z,62427.91
2022-10-23T12:07:36.438Z,62438.28
2022-10-23T12:10:17.841Z,62421.69
2022-10-23T12:12:55.435Z,62508.72
2022-10-23T12:15:22.709Z,62313.94
2022-10-23T12:17:50.849Z,62568.81
2022-10-23T12:20:19.685Z,62591.63
2022-10-23T12:23:07.987Z,62834.06
2022-10-23T12:25:45.202Z,63072.38
2022-10-23T12:28:23.210Z,63006.06
2022-10-23T12:31:34.138Z,63018.50
2022-10-23T12:34:24.875Z,63084.81
2022-10-23T12:37:18.143Z,63030.94
2022-10-23T12:39:52.182Z,62991.56
2022-10-23T12:42:37.831Z,62836.13
2022-10-23T12:45:20.552Z,62856.84
2022-10-23T12:47:47.721Z,62595.75
2022-10-23T12:50:26.031Z,62713.88
2022-10-23T12:53:03.421Z,62850.63
2022-10-23T12:58:32.957Z,62887.94
2022-10-23T13:01:02.041Z,62983.28
2022-10-23T13:03:30.155Z,62885.88
2022-10-23T13:06:04.309Z,62680.72
2022-10-23T13:08:39.200Z,62597.81
2022-10-23T13:11:06.158Z,62599.91
2022-10-23T13:13:32.618Z,62666.22
2022-10-23T13:15:59.087Z,62608.19
2022-10-23T13:18:25.485Z,62767.75
2022-10-23T13:20:51.854Z,62800.91
2022-10-23T13:23:31.342Z,62894.16
2022-10-23T13:26:47.246Z,62622.69
2022-10-23T13:29:19.361Z,62645.50
2022-10-23T13:31:45.854Z,62508.72
2022-10-23T13:34:25.848Z,62589.53
2022-10-23T13:36:56.317Z,62560.53
2022-10-23T13:39:30.733Z,62475.56
2022-10-23T13:42:01.145Z,62485.94
2022-10-23T13:44:27.666Z,62570.88
2022-10-23T13:46:54.130Z,62599.91
2022-10-23T13:49:20.767Z,62577.09
2022-10-23T13:51:55.206Z,62583.31
2022-10-23T13:54:24.341Z,62527.38
2022-10-23T13:56:51.583Z,62338.81
2022-10-23T13:59:18.502Z,62365.75
2022-10-23T14:01:46.186Z,62450.72
2022-10-23T14:04:13.622Z,62403.03
2022-10-23T14:06:40.570Z,62390.63
2022-10-23T14:09:08.807Z,62322.22
2022-10-23T14:11:35.393Z,62376.09
2022-10-23T14:14:02.138Z,62347.09
2022-10-23T14:16:28.985Z,62309.81
2022-10-23T14:18:55.658Z,62305.66
2022-10-23T14:21:23.203Z,62309.81
2022-10-23T14:23:51.412Z,62309.81
2022-10-23T14:26:21.741Z,62197.91
2022-10-23T14:28:48.289Z,62216.56
2022-10-23T14:31:16.638Z,62195.84
2022-10-23T14:33:43.660Z,62235.22
2022-10-23T14:36:10.380Z,62117.09
2022-10-23T14:38:36.963Z,62187.56
2022-10-23T14:41:03.987Z,62195.84
2022-10-23T14:43:30.423Z,62212.41
2022-10-23T14:45:56.828Z,62208.28
2022-10-23T14:48:23.201Z,62100.53
2022-10-23T14:50:49.835Z,62102.59
2022-10-23T14:53:16.733Z,62077.75
2022-10-23T14:55:43.256Z,62071.53
2022-10-23T14:58:09.901Z,61992.78
2022-10-23T15:00:36.355Z,62094.31
2022-10-23T15:03:02.793Z,61949.28
2022-10-23T15:05:29.205Z,61932.72
2022-10-23T15:07:56.370Z,62351.25
2022-10-23T15:10:22.796Z,61926.50
2022-10-23T15:12:49.273Z,61860.19
2022-10-23T15:15:15.788Z,61955.50
2022-10-23T15:17:42.297Z,61895.41
2022-10-23T15:20:09.276Z,61907.84
2022-10-23T15:22:35.709Z,61824.97
2022-10-23T15:25:02.336Z,61820.84
2022-10-23T15:27:28.797Z,61816.69
2022-10-23T15:29:55.246Z,61760.75
2022-10-23T15:32:21.697Z,61771.13
2022-10-23T15:34:49.607Z,61883.00
2022-10-23T15:37:16.106Z,61793.91
2022-10-23T15:39:42.743Z,61690.31
2022-10-23T15:42:10.182Z,61733.81
2022-10-23T15:44:36.828Z,61729.69
2022-10-23T15:47:03.695Z,61528.72
2022-10-23T15:49:30.212Z,61439.66
2022-10-23T15:51:57.037Z,61387.84
2022-10-23T15:54:24.171Z,61344.34
2022-10-23T15:56:53.724Z,61315.34
2022-10-23T15:59:23.340Z,61276.00
2022-10-23T16:01:50.614Z,61211.78
2022-10-23T16:04:17.267Z,61267.72
2022-10-23T16:06:44.484Z,61178.63
2022-10-23T16:09:11.258Z,61149.63
2022-10-23T16:11:39.316Z,61172.41
2022-10-23T16:14:06.069Z,61044.00
2022-10-23T16:16:33.502Z,61023.28
2022-10-23T16:19:01.371Z,61046.06
2022-10-23T16:21:30.844Z,61010.84
2022-10-23T16:23:59.140Z,60950.78
2022-10-23T16:26:26.764Z,61033.63
2022-10-23T16:28:58.493Z,61017.06
2022-10-23T16:31:25.901Z,60981.84
2022-10-23T16:33:53.136Z,60952.84
2022-10-23T16:36:20.483Z,61087.50
2022-10-23T16:38:46.864Z,61052.28
2022-10-23T16:41:13.281Z,60996.34
2022-10-23T16:43:39.770Z,61073.00
2022-10-23T16:46:07.369Z,61021.22
2022-10-23T16:48:34.721Z,60940.44
2022-10-23T16:51:05.375Z,60934.22
2022-10-23T16:53:33.133Z,60938.34
2022-10-23T16:55:59.602Z,60936.28
2022-10-23T16:58:26.738Z,60919.72
2022-10-23T17:01:00.454Z,60944.56
2022-10-23T17:03:27.344Z,60834.78
2022-10-23T17:05:56.421Z,60849.28
2022-10-23T17:08:24.860Z,61282.22
2022-10-23T17:11:13.007Z,60878.28
2022-10-23T17:13:47.561Z,60913.50
2022-10-23T17:16:39.251Z,60896.94
2022-10-23T17:19:43.328Z,60836.88
2022-10-23T17:21:54.896Z,60899.00
2022-10-23T17:24:22.133Z,60917.63
2022-10-23T17:26:48.541Z,60884.50
2022-10-23T17:29:15.093Z,60785.09
2022-10-23T17:31:47.144Z,60890.72
2022-10-23T17:34:16.145Z,60838.94
2022-10-23T17:36:46.542Z,60853.44
2022-10-23T17:39:14.635Z,60795.44
2022-10-23T17:41:41.853Z,60967.34
2022-10-23T17:44:08.267Z,60832.72
2022-10-23T17:46:34.773Z,60805.78
2022-10-23T17:51:31.035Z,60867.94
2022-10-23T17:54:01.119Z,61058.50
2022-10-23T17:56:29.440Z,60820.28
2022-10-23T17:59:00.077Z,60818.22
2022-10-23T18:01:28.621Z,60822.38
2022-10-23T18:03:57.326Z,60849.28
2022-10-23T18:06:29.524Z,60768.50
2022-10-23T18:08:56.671Z,60836.88
2022-10-23T18:11:28.303Z,60809.94
2022-10-23T18:13:55.039Z,61004.63
2022-10-23T18:16:21.665Z,60733.31
2022-10-23T18:18:48.557Z,60838.94
2022-10-23T18:21:16.742Z,60772.66
2022-10-23T18:23:43.180Z,60739.50
2022-10-23T18:26:18.287Z,60785.09
2022-10-23T18:28:46.077Z,60793.38
2022-10-23T18:31:12.982Z,60789.22
2022-10-23T18:33:39.618Z,60814.06
2022-10-23T18:36:28.306Z,60801.66
2022-10-23T18:41:23.590Z,60722.94
2022-10-23T18:43:53.715Z,60772.66
2022-10-23T18:46:20.568Z,60778.88
2022-10-23T18:48:47.864Z,60785.09
2022-10-23T18:51:16.183Z,60778.88
2022-10-23T18:53:43.235Z,60729.16
2022-10-23T18:56:09.671Z,60737.44
2022-10-23T18:58:36.066Z,60787.16
2022-10-23T19:01:02.600Z,60706.38
2022-10-23T19:03:29.173Z,60783.00
2022-10-23T19:05:55.696Z,60797.50
2022-10-23T19:08:22.104Z,60809.94
2022-10-23T19:10:49.510Z,61050.22
2022-10-23T19:13:16.969Z,60720.88
2022-10-23T19:15:43.865Z,60812.00
2022-10-23T19:18:10.508Z,60838.94
2022-10-23T19:20:37.269Z,60812.00
2022-10-23T19:23:05.278Z,60855.50
2022-10-23T19:25:33.528Z,60836.88
2022-10-23T19:28:00.441Z,60828.56
2022-10-23T19:30:27.143Z,61323.63
2022-10-23T19:32:53.912Z,60793.38
2022-10-23T19:35:22.085Z,60679.44
2022-10-23T19:37:48.760Z,60814.06
2022-10-23T19:40:15.645Z,60758.16
2022-10-23T19:42:45.287Z,60849.28
2022-10-23T19:45:13.503Z,60855.50
2022-10-23T19:47:40.624Z,60913.50
2022-10-23T19:50:08.431Z,60911.44
2022-10-23T19:52:34.974Z,60892.78
2022-10-23T19:55:03.098Z,60896.94
2022-10-23T19:57:35.675Z,60812.00
2022-10-23T20:00:02.354Z,60954.94
2022-10-23T20:02:29.548Z,60934.22
2022-10-23T20:04:56.335Z,60851.38
2022-10-23T20:07:22.794Z,61211.78
2022-10-23T20:09:49.194Z,60905.22
2022-10-23T20:12:15.960Z,60894.84
2022-10-23T20:14:42.378Z,60851.38
2022-10-23T20:17:08.923Z,60859.66
2022-10-23T20:19:35.361Z,60809.94
2022-10-23T20:22:01.779Z,60776.78
2022-10-23T20:24:28.187Z,60826.50
2022-10-23T20:26:55.743Z,60822.38
2022-10-23T20:29:22.748Z,60857.56
2022-10-23T20:31:49.133Z,60882.44
2022-10-23T20:34:15.629Z,60896.94
2022-10-23T20:36:46.611Z,61195.22
2022-10-23T20:39:16.529Z,60928.00
2022-10-23T20:41:44.889Z,60841.00
2022-10-23T20:44:13.554Z,60824.44
2022-10-23T20:46:40.417Z,60822.38
2022-10-23T20:49:06.870Z,60816.16
2022-10-23T20:51:33.718Z,61118.56
2022-10-23T20:54:00.165Z,60942.50
2022-10-23T20:56:32.600Z,60735.38
2022-10-23T20:59:01.093Z,60749.88
2022-10-23T21:01:28.413Z,60698.09
2022-10-23T21:03:56.953Z,60673.22
2022-10-23T21:06:25.031Z,60646.31
2022-10-23T21:08:58.575Z,60606.97
2022-10-23T21:11:25.657Z,60609.03
2022-10-23T21:13:52.717Z,60967.34
2022-10-23T21:16:24.845Z,60499.25
2022-10-23T21:18:55.589Z,60838.94
2022-10-23T21:21:22.216Z,60809.94
2022-10-23T21:23:50.944Z,60505.47
2022-10-23T21:26:19.063Z,60594.53
2022-10-23T21:28:55.834Z,60526.19
2022-10-23T21:31:33.649Z,60482.69
2022-10-23T21:34:00.255Z,60474.41
2022-10-23T21:36:27.464Z,60335.66
2022-10-23T21:38:56.728Z,60432.97
2022-10-23T21:41:25.733Z,60317.00
2022-10-23T21:43:54.524Z,60424.69
2022-10-23T21:46:21.586Z,60461.97
2022-10-23T21:48:48.266Z,60532.41
2022-10-23T21:51:22.977Z,60362.56
2022-10-23T21:53:50.506Z,60387.41
2022-10-23T21:56:30.063Z,60366.72
2022-10-23T21:58:58.018Z,60343.94
2022-10-23T22:01:25.167Z,60337.72
2022-10-23T22:03:52.237Z,60505.47
2022-10-23T22:06:27.976Z,60399.84
2022-10-23T22:08:56.249Z,60399.84
2022-10-23T22:11:22.780Z,60364.63
2022-10-23T22:13:49.141Z,60329.44
2022-10-23T22:16:16.120Z,60428.84
2022-10-23T22:18:43.724Z,60375.00
2022-10-23T22:21:16.908Z,60439.19
2022-10-23T22:23:43.693Z,60397.78
2022-10-23T22:26:38.142Z,60472.34
2022-10-23T22:29:07.098Z,60466.13
2022-10-23T22:31:34.721Z,60399.84
2022-10-23T22:34:13.199Z,60455.78
2022-10-23T22:36:50.136Z,60495.13
2022-10-23T22:39:16.850Z,60459.91
2022-10-23T22:41:43.579Z,60437.13
2022-10-23T22:44:11.598Z,60503.41
2022-10-23T22:46:38.204Z,60515.81
2022-10-23T22:51:32.221Z,60451.63
2022-10-23T22:53:58.983Z,60546.91
2022-10-23T22:56:27.435Z,60642.16
2022-10-23T22:58:54.906Z,60563.47
2022-10-23T23:01:30.541Z,60588.31
2022-10-23T23:04:04.455Z,60555.19
2022-10-23T23:06:45.280Z,60553.09
2022-10-23T23:09:15.515Z,60664.94
2022-10-23T23:11:51.246Z,60515.81
2022-10-23T23:14:22.046Z,60548.97
2022-10-23T23:16:50.428Z,60571.75
2022-10-23T23:19:16.795Z,60557.25
2022-10-23T23:21:43.197Z,60493.03
2022-10-23T23:24:11.143Z,60532.41
2022-10-23T23:26:37.537Z,60551.03
2022-10-23T23:29:03.966Z,60553.09
2022-10-23T23:31:30.534Z,60567.59
2022-10-23T23:33:56.945Z,60586.25
2022-10-23T23:36:26.582Z,60609.03
2022-10-23T23:38:53.138Z,60571.75
2022-10-23T23:41:20.663Z,60559.31
2022-10-23T23:43:47.350Z,60720.88
2022-10-23T23:46:14.219Z,60681.53
2022-10-23T23:48:42.457Z,60606.97
2022-10-23T23:51:09.140Z,60905.22
2022-10-23T23:53:35.502Z,60704.31
2022-10-23T23:56:01.973Z,60681.53
2022-10-23T23:58:28.432Z,60673.22
